METAR Data
IDs: Format: Raw Decoded Include TAF

Data at: 0215 UTC 12 May 2021

KLAF 120154Z AUTO 35005KT 10SM CLR 09/M01 A3038 RMK AO2 SLP288 T00891011
KLAF 120054Z AUTO 36011KT 10SM CLR 11/M01 A3035 RMK AO2 SLP278 T01061011
KLAF 112354Z 01009KT 10SM CLR 12/M02 A3033 RMK AO2 SLP273 T01221022 10156 20122 53012
KLAF 112254Z 02014KT 10SM CLR 13/M02 A3031 RMK AO2 SLP267 T01331022
KLAF 112154Z 01010G17KT 10SM CLR 15/M01 A3030 RMK AO2 SLP262 T01501006
KLAF 112054Z 35013G23KT 10SM SCT060 15/01 A3029 RMK AO2 SLP259 T01500006 56007
KLAF 111954Z 03010KT 10SM FEW060 15/01 A3030 RMK AO2 SLP260 T01500011
KLAF 111854Z 36011G18KT 10SM SCT050 14/01 A3030 RMK AO2 SLP262 T01440011
KLAF 111754Z 36014G19KT 10SM BKN050 14/01 A3032 RMK AO2 WSHFT 1646 SLP266 T01440011 10150 20078 58005
KLAF 111706Z 36009G22KT 10SM FEW050 14/01 A3034 RMK AO2 WSHFT 1646 T01440011
KLAF 111654Z 34011G20KT 10SM FEW050 14/01 A3034 RMK AO2 SLP274 T01390006
KLAF 111554Z 03009G15KT 10SM CLR 14/01 A3033 RMK AO2 SLP271 T01390011
KLAF 111454Z 08005KT 10SM CLR 12/02 A3033 RMK AO2 SLP271 T01220022 51013
KLAF 111354Z 05006KT 10SM CLR 11/02 A3032 RMK AO2 SLP269 T01110017
KLAF 111254Z 04009KT 10SM CLR 10/01 A3030 RMK AO2 SLP262 T01000011
KLAF 111154Z 02006KT 10SM FEW075 OVC110 08/02 A3029 RMK AO2 SLP260 60000 70016 T00780017 10089 20067 53021
KLAF 111054Z 04004KT 10SM OVC080 07/01 A3026 RMK AO2 SLP249 T00720011
KLAF 110954Z AUTO 03003KT 10SM BKN080 OVC095 07/01 A3025 RMK AO2 SLP242 T00720011
KLAF 110854Z AUTO 04004KT 10SM SCT070 BKN100 OVC120 08/02 A3023 RMK AO2 SLP237 60000 T00780017 53008
KLAF 110754Z AUTO 00000KT 10SM OVC070 08/03 A3022 RMK AO2 SLP231 T00830033
KLAF 110654Z AUTO 00000KT 10SM BKN070 OVC085 09/04 A3021 RMK AO2 RAE00 SLP228 P0000 T00890039
KLAF 110554Z AUTO 00000KT 10SM -RA BKN060 OVC095 09/06 A3021 RMK AO2 SLP228 P0004 60013 T00890056 10128 20089 53008
KLAF 110454Z AUTO 03004KT 7SM RA OVC046 09/04 A3019 RMK AO2 RAB35 SLP225 P0003 T00940044 401830022
KLAF 110354Z AUTO 03009KT 10SM BKN065 OVC085 10/04 A3019 RMK AO2 SLP223 T01000039
KLAF 110254Z AUTO 02011KT 10SM OVC065 10/04 A3018 RMK AO2 RAE07 SLP221 P0000 60006 T01000044 53016
KLAF 110154Z AUTO 00000KT 10SM -RA BKN055 OVC070 12/08 A3016 RMK AO2 SLP212 P0003 T01220083
KLAF 110054Z 01005KT 5SM -RA FEW036 BKN055 OVC070 12/08 A3014 RMK AO2 SLP208 P0003 T01220083
KLAF 102354Z 32003KT 9SM -RA OVC060 13/08 A3013 RMK AO2 SLP206 P0002 60003 T01280078 10183 20122 53007
KLAF 102254Z 34005KT 10SM -RA OVC070 13/07 A3012 RMK AO2 SLP200 P0001 T01330072
KLAF 102154Z 30004KT 10SM -RA BKN060 OVC080 16/06 A3011 RMK AO2 RAB42 SLP198 P0000 T01610061
KLAF 102054Z VRB03KT 10SM BKN070 BKN085 OVC100 17/04 A3011 RMK AO2 SLP198 T01720044 55010
KLAF 101954Z 24004KT 10SM FEW050 SCT085 BKN110 17/04 A3011 RMK AO2 SLP197 T01720039
KLAF 101854Z 23007KT 10SM SCT049 BKN060 BKN100 18/06 A3013 RMK AO2 SLP202 T01780056
KLAF 101754Z 24008KT 10SM FEW041 SCT048 BKN070 18/06 A3014 RMK AO2 SLP208 T01780056 10178 20044 58001
KLAF 101654Z 10SM CLR 16/05 A3015 RMK AO2 SLP209 T01610050
KLAF 101554Z VRB05KT 10SM SCT110 15/04 A3015 RMK AO2 SLP212 T01500039
KLAF 101454Z 30005KT 10SM CLR 14/03 A3015 RMK AO2 SLP209 T01390033 53007